createdAt,value
2018-12-02T00:00:17.595Z,10.90
2018-12-02T00:02:44.982Z,10.70
2018-12-02T00:05:12.319Z,10.80
2018-12-02T00:07:39.746Z,10.90
2018-12-02T00:10:09.625Z,11.20
2018-12-02T00:12:37.110Z,10.90
2018-12-02T00:15:08.458Z,10.90
2018-12-02T00:17:35.785Z,10.90
2018-12-02T00:20:03.779Z,10.80
2018-12-02T00:22:31.118Z,10.90
2018-12-02T00:24:58.465Z,10.90
2018-12-02T00:27:25.816Z,11.00
2018-12-02T00:29:53.153Z,11.10
2018-12-02T00:32:20.499Z,10.90
2018-12-02T00:34:47.826Z,11.00
2018-12-02T00:37:15.158Z,11.00
2018-12-02T00:39:42.500Z,11.30
2018-12-02T00:42:10.029Z,11.10
2018-12-02T00:44:37.406Z,10.90
2018-12-02T00:47:04.841Z,10.90
2018-12-02T00:49:32.155Z,11.10
2018-12-02T00:51:59.557Z,11.10
2018-12-02T00:54:26.894Z,11.50
2018-12-02T00:56:54.234Z,11.20
2018-12-02T00:59:21.561Z,11.10
2018-12-02T01:01:48.921Z,11.10
2018-12-02T01:04:16.429Z,11.10
2018-12-02T01:06:43.778Z,11.30
2018-12-02T01:09:11.140Z,11.10
2018-12-02T01:11:38.516Z,11.10
2018-12-02T01:14:05.911Z,11.10
2018-12-02T01:16:33.287Z,11.10
2018-12-02T01:19:00.677Z,11.10
2018-12-02T01:21:28.085Z,11.20
2018-12-02T01:23:55.598Z,11.10
2018-12-02T01:26:22.993Z,11.20
2018-12-02T01:28:50.523Z,11.20
2018-12-02T01:31:18.044Z,11.60
2018-12-02T01:33:45.430Z,11.20
2018-12-02T01:36:12.895Z,11.70
2018-12-02T01:38:40.250Z,11.10
2018-12-02T01:41:07.829Z,11.20
2018-12-02T01:43:35.198Z,11.10
2018-12-02T01:46:02.575Z,11.30
2018-12-02T01:48:29.917Z,11.10
2018-12-02T01:50:57.412Z,11.20
2018-12-02T01:53:24.777Z,11.10
2018-12-02T01:55:52.212Z,11.10
2018-12-02T01:58:19.561Z,11.20
2018-12-02T02:00:46.944Z,11.50
2018-12-02T02:03:14.323Z,11.10
2018-12-02T02:05:41.665Z,11.70
2018-12-02T02:08:09.057Z,11.30
2018-12-02T02:10:36.416Z,11.20
2018-12-02T02:13:03.836Z,11.20
2018-12-02T02:15:31.221Z,11.20
2018-12-02T02:17:58.572Z,11.30
2018-12-02T02:20:25.958Z,11.30
2018-12-02T02:22:53.357Z,11.30
2018-12-02T02:25:21.698Z,11.20
2018-12-02T02:27:50.546Z,11.20
2018-12-02T02:30:19.101Z,11.20
2018-12-02T02:32:46.454Z,10.80
2018-12-02T02:35:14.353Z,11.30
2018-12-02T02:37:41.760Z,11.20
2018-12-02T02:40:15.270Z,11.30
2018-12-02T02:42:42.625Z,11.20
2018-12-02T02:45:10.953Z,11.20
2018-12-02T02:47:38.319Z,11.40
2018-12-02T02:50:13.093Z,11.20
2018-12-02T02:52:41.233Z,11.20
2018-12-02T02:55:08.586Z,11.20
2018-12-02T02:57:35.907Z,11.20
2018-12-02T03:00:06.945Z,11.60
2018-12-02T03:02:34.267Z,11.30
2018-12-02T03:05:01.575Z,11.60
2018-12-02T03:07:28.945Z,11.30
2018-12-02T03:09:56.265Z,11.30
2018-12-02T03:12:23.581Z,11.30
2018-12-02T03:14:51.074Z,11.60
2018-12-02T03:17:18.389Z,11.30
2018-12-02T03:19:46.822Z,11.30
2018-12-02T03:22:14.478Z,11.30
2018-12-02T03:24:41.815Z,11.30
2018-12-02T03:27:09.313Z,11.60
2018-12-02T03:29:36.934Z,11.40
2018-12-02T03:32:04.267Z,11.30
2018-12-02T03:34:31.576Z,11.40
2018-12-02T03:40:19.454Z,11.40
2018-12-02T03:43:17.507Z,11.40
2018-12-02T03:45:45.579Z,11.40
2018-12-02T03:48:13.102Z,11.30
2018-12-02T03:50:40.917Z,11.40
2018-12-02T03:53:08.521Z,11.30
2018-12-02T03:55:36.470Z,11.40
2018-12-02T03:58:04.026Z,11.40
2018-12-02T04:00:31.559Z,11.50
2018-12-02T04:02:59.064Z,11.50
2018-12-02T04:05:26.614Z,11.40
2018-12-02T04:07:54.194Z,11.30
2018-12-02T04:10:21.822Z,11.20
2018-12-02T04:12:50.201Z,11.30
2018-12-02T04:15:19.693Z,11.20
2018-12-02T04:17:47.215Z,11.20
2018-12-02T04:20:15.441Z,11.20
2018-12-02T04:22:43.493Z,11.10
2018-12-02T04:25:12.197Z,11.10
2018-12-02T04:27:39.713Z,11.20
2018-12-02T04:30:09.768Z,11.10
2018-12-02T04:32:37.450Z,11.00
2018-12-02T04:35:06.925Z,11.00
2018-12-02T04:37:34.461Z,11.10
2018-12-02T04:40:02.264Z,11.00
2018-12-02T04:42:29.804Z,11.20
2018-12-02T04:44:57.321Z,11.00
2018-12-02T04:47:24.877Z,11.10
2018-12-02T04:49:52.487Z,10.90
2018-12-02T04:52:19.941Z,11.00
2018-12-02T04:54:47.457Z,10.90
2018-12-02T04:57:14.961Z,10.90
2018-12-02T04:59:42.470Z,11.10
2018-12-02T05:02:10.255Z,11.00
2018-12-02T05:04:37.793Z,11.20
2018-12-02T05:07:05.374Z,10.90
2018-12-02T05:09:32.878Z,11.00
2018-12-02T05:12:00.401Z,10.90
2018-12-02T05:14:27.923Z,10.90
2018-12-02T05:16:55.430Z,10.90
2018-12-02T05:19:23.066Z,10.80
2018-12-02T05:21:50.753Z,10.90
2018-12-02T05:24:18.292Z,11.00
2018-12-02T05:26:45.801Z,11.10
2018-12-02T05:29:13.317Z,10.90
2018-12-02T05:31:40.821Z,10.90
2018-12-02T05:34:08.349Z,10.90
2018-12-02T05:36:35.865Z,10.90
2018-12-02T05:39:05.908Z,10.90
2018-12-02T05:41:38.965Z,10.90
2018-12-02T05:44:06.491Z,10.90
2018-12-02T05:46:34.005Z,11.00
2018-12-02T05:49:01.516Z,11.00
2018-12-02T05:51:29.033Z,10.90
2018-12-02T05:53:56.634Z,11.00
2018-12-02T05:56:24.120Z,11.00
2018-12-02T05:58:51.733Z,11.10
2018-12-02T06:01:19.515Z,11.00
2018-12-02T06:03:47.024Z,11.30
2018-12-02T06:06:14.553Z,11.00
2018-12-02T06:08:42.057Z,11.20
2018-12-02T06:11:09.706Z,11.00
2018-12-02T06:13:37.221Z,11.20
2018-12-02T06:16:05.263Z,11.00
2018-12-02T06:18:32.811Z,11.00
2018-12-02T06:21:00.329Z,11.00
2018-12-02T06:23:27.865Z,11.10
2018-12-02T06:25:55.418Z,11.10
2018-12-02T06:28:22.999Z,11.20
2018-12-02T06:30:50.812Z,11.20
2018-12-02T06:33:18.329Z,11.20
2018-12-02T06:35:45.861Z,11.40
2018-12-02T06:38:13.362Z,11.10
2018-12-02T06:40:40.898Z,11.10
2018-12-02T06:43:08.406Z,11.10
2018-12-02T06:45:35.966Z,11.10
2018-12-02T06:48:03.634Z,11.10
2018-12-02T06:50:31.221Z,11.60
2018-12-02T06:52:58.759Z,11.20
2018-12-02T06:55:40.594Z,11.30
2018-12-02T07:00:22.517Z,11.20
2018-12-02T07:04:28.360Z,11.50
2018-12-02T07:06:56.242Z,11.00
2018-12-02T07:09:23.604Z,11.00
2018-12-02T07:11:51.228Z,11.10
2018-12-02T07:14:18.534Z,11.00
2018-12-02T07:16:45.853Z,11.30
2018-12-02T07:19:15.088Z,11.20
2018-12-02T07:21:43.273Z,11.00
2018-12-02T07:24:11.182Z,11.00
2018-12-02T07:26:38.535Z,11.70
2018-12-02T07:29:05.954Z,11.00
2018-12-02T07:31:33.285Z,11.00
2018-12-02T07:34:00.600Z,11.10
2018-12-02T07:36:27.969Z,11.40
2018-12-02T07:41:07.370Z,11.10
2018-12-02T07:43:34.941Z,11.40
2018-12-02T07:46:02.486Z,11.00
2018-12-02T07:48:30.103Z,11.00
2018-12-02T07:50:57.685Z,11.00
2018-12-02T07:53:25.189Z,10.90
2018-12-02T07:55:52.716Z,11.30
2018-12-02T07:58:20.382Z,11.10
2018-12-02T08:00:47.936Z,11.00
2018-12-02T08:03:15.496Z,11.10
2018-12-02T08:05:43.021Z,11.10
2018-12-02T08:08:11.105Z,11.10
2018-12-02T08:10:38.634Z,11.10
2018-12-02T08:13:06.200Z,11.00
2018-12-02T08:15:33.744Z,11.10
2018-12-02T08:18:01.269Z,11.10
2018-12-02T08:20:28.899Z,11.10
2018-12-02T08:22:56.517Z,11.30
2018-12-02T08:25:24.074Z,11.50
2018-12-02T08:27:51.777Z,11.20
2018-12-02T08:30:20.648Z,11.20
2018-12-02T08:32:48.210Z,11.20
2018-12-02T08:35:16.767Z,11.20
2018-12-02T08:37:45.893Z,11.30
2018-12-02T08:40:13.587Z,11.20
2018-12-02T08:42:41.169Z,11.20
2018-12-02T08:45:11.233Z,11.20
2018-12-02T08:47:39.314Z,11.20
2018-12-02T08:50:09.633Z,11.30
2018-12-02T08:52:37.394Z,11.40
2018-12-02T08:55:06.091Z,11.10
2018-12-02T08:57:33.635Z,11.60
2018-12-02T09:00:01.158Z,11.40
2018-12-02T09:02:28.674Z,11.40
2018-12-02T09:04:56.322Z,11.70
2018-12-02T09:07:23.814Z,11.40
2018-12-02T09:09:59.381Z,11.50
2018-12-02T09:12:19.022Z,11.50
2018-12-02T09:14:46.552Z,11.60
2018-12-02T09:17:14.108Z,11.60
2018-12-02T09:19:41.752Z,11.70
2018-12-02T09:22:09.370Z,11.50
2018-12-02T09:24:37.427Z,11.60
2018-12-02T09:27:04.981Z,11.60
2018-12-02T09:29:32.498Z,11.70
2018-12-02T09:31:59.992Z,11.70
2018-12-02T09:34:27.567Z,11.80
2018-12-02T09:36:57.985Z,11.90
2018-12-02T09:39:22.728Z,12.30
2018-12-02T09:41:50.415Z,12.00
2018-12-02T09:44:18.085Z,12.00
2018-12-02T09:46:45.685Z,12.00
2018-12-02T09:49:13.221Z,11.90
2018-12-02T09:51:40.770Z,12.00
2018-12-02T09:54:08.286Z,12.00
2018-12-02T09:56:35.870Z,12.10
2018-12-02T09:59:05.538Z,11.90
2018-12-02T10:01:33.228Z,12.00
2018-12-02T10:04:00.832Z,12.00
2018-12-02T10:06:28.396Z,11.70
2018-12-02T10:08:56.097Z,12.00
2018-12-02T10:11:23.695Z,12.40
2018-12-02T10:13:51.405Z,11.90
2018-12-02T10:16:18.998Z,12.40
2018-12-02T10:18:46.578Z,11.90
2018-12-02T10:21:14.077Z,12.00
2018-12-02T10:23:41.674Z,12.00
2018-12-02T10:26:09.262Z,12.00
2018-12-02T10:28:36.884Z,12.10
2018-12-02T10:31:04.696Z,12.10
2018-12-02T10:33:32.234Z,12.20
2018-12-02T10:35:59.801Z,12.40
2018-12-02T10:38:27.367Z,12.20
2018-12-02T10:40:54.902Z,12.20
2018-12-02T10:43:22.503Z,12.20
2018-12-02T10:45:50.077Z,12.20
2018-12-02T10:48:17.802Z,12.60
2018-12-02T10:50:45.708Z,12.30
2018-12-02T10:53:19.859Z,12.70
2018-12-02T10:55:50.942Z,12.40
2018-12-02T10:58:19.858Z,12.90
2018-12-02T11:00:53.534Z,12.40
2018-12-02T11:03:21.089Z,12.40
2018-12-02T11:05:48.658Z,12.50
2018-12-02T11:08:16.258Z,12.50
2018-12-02T11:10:43.853Z,12.50
2018-12-02T11:13:11.685Z,12.60
2018-12-02T11:15:39.589Z,12.70
2018-12-02T11:18:08.761Z,12.60
2018-12-02T11:20:36.366Z,12.70
2018-12-02T11:23:04.335Z,12.70
2018-12-02T11:25:31.896Z,12.70
2018-12-02T11:27:59.477Z,12.70
2018-12-02T11:30:26.996Z,12.70
2018-12-02T11:32:54.504Z,12.80
2018-12-02T11:35:22.058Z,12.90
2018-12-02T11:37:49.629Z,13.00
2018-12-02T11:40:20.801Z,13.00
2018-12-02T11:42:49.321Z,13.00
2018-12-02T11:45:16.889Z,13.00
2018-12-02T11:47:47.290Z,13.10
2018-12-02T11:50:19.575Z,13.10
2018-12-02T11:52:47.254Z,13.20
2018-12-02T11:55:15.797Z,13.20
2018-12-02T11:57:43.348Z,13.40
2018-12-02T12:00:16.701Z,13.40
2018-12-02T12:02:44.235Z,13.30
2018-12-02T12:05:12.028Z,13.50
2018-12-02T12:07:40.141Z,13.40
2018-12-02T12:10:10.237Z,13.80
2018-12-02T12:12:37.854Z,13.50
2018-12-02T12:15:07.662Z,13.80
2018-12-02T12:17:35.245Z,13.80
2018-12-02T12:20:11.657Z,13.60
2018-12-02T12:22:39.202Z,13.60
2018-12-02T12:25:08.664Z,14.00
2018-12-02T12:27:35.294Z,14.00
2018-12-02T12:30:03.993Z,13.70
2018-12-02T12:32:31.669Z,13.70
2018-12-02T12:34:59.263Z,13.30
2018-12-02T12:37:26.865Z,13.80
2018-12-02T12:39:54.406Z,14.10
2018-12-02T12:42:21.985Z,13.90
2018-12-02T12:44:49.549Z,13.90
2018-12-02T12:47:17.378Z,13.90
2018-12-02T12:49:45.139Z,14.00
2018-12-02T12:52:12.664Z,14.00
2018-12-02T12:54:40.213Z,14.10
2018-12-02T12:57:07.754Z,14.20
2018-12-02T12:59:35.402Z,14.20
2018-12-02T13:02:03.321Z,14.20
2018-12-02T13:04:30.856Z,14.20
2018-12-02T13:06:58.389Z,14.20
2018-12-02T13:09:26.017Z,14.50
2018-12-02T13:11:53.548Z,14.20
2018-12-02T13:14:21.112Z,14.50
2018-12-02T13:16:48.958Z,14.20
2018-12-02T13:19:19.956Z,14.20
2018-12-02T13:21:48.229Z,14.20
2018-12-02T13:24:15.847Z,14.30
2018-12-02T13:26:43.180Z,14.30
2018-12-02T13:29:10.620Z,14.20
2018-12-02T13:31:37.938Z,14.30
2018-12-02T13:34:05.277Z,14.40
2018-12-02T13:36:32.595Z,14.30
2018-12-02T13:38:59.930Z,14.30
2018-12-02T13:41:27.253Z,14.30
2018-12-02T13:43:55.089Z,14.60
2018-12-02T13:46:22.398Z,14.20
2018-12-02T13:48:49.945Z,14.40
2018-12-02T13:51:17.686Z,14.40
2018-12-02T13:53:50.981Z,14.50
2018-12-02T13:56:22.977Z,14.30
2018-12-02T13:58:45.921Z,14.50
2018-12-02T14:01:13.428Z,13.90
2018-12-02T14:03:40.938Z,14.40
2018-12-02T14:06:08.464Z,14.70
2018-12-02T14:08:35.760Z,14.40
2018-12-02T14:11:03.305Z,14.50
2018-12-02T14:13:30.811Z,14.50
2018-12-02T14:16:07.800Z,14.60
2018-12-02T14:18:36.694Z,14.50
2018-12-02T14:21:04.859Z,14.50
2018-12-02T14:23:32.417Z,14.60
2018-12-02T14:26:02.513Z,14.30
2018-12-02T14:28:47.482Z,14.60
2018-12-02T14:31:15.868Z,14.60
2018-12-02T14:33:43.401Z,14.60
2018-12-02T14:36:11.108Z,14.30
2018-12-02T14:38:38.630Z,14.60
2018-12-02T14:41:06.180Z,14.50
2018-12-02T14:43:33.714Z,14.50
2018-12-02T14:46:01.238Z,14.50
2018-12-02T14:48:28.734Z,14.60
2018-12-02T14:50:56.285Z,14.50
2018-12-02T14:53:23.918Z,14.50
2018-12-02T14:55:51.561Z,14.80
2018-12-02T14:58:19.178Z,14.70
2018-12-02T15:00:46.669Z,14.50
2018-12-02T15:03:14.216Z,14.80
2018-12-02T15:05:41.726Z,14.40
2018-12-02T15:08:09.221Z,14.50
2018-12-02T15:10:36.733Z,14.50
2018-12-02T15:13:04.698Z,14.40
2018-12-02T15:15:32.206Z,14.40
2018-12-02T15:17:59.771Z,14.50
2018-12-02T15:20:27.292Z,14.50
2018-12-02T15:22:54.796Z,14.40
2018-12-02T15:25:22.448Z,14.50
2018-12-02T15:27:49.985Z,14.40
2018-12-02T15:30:17.926Z,14.00
2018-12-02T15:32:47.801Z,14.70
2018-12-02T15:35:15.408Z,14.30
2018-12-02T15:37:42.938Z,14.30
2018-12-02T15:40:15.387Z,14.40
2018-12-02T15:42:49.206Z,14.30
2018-12-02T15:45:17.347Z,14.30
2018-12-02T15:47:44.937Z,14.40
2018-12-02T15:50:15.511Z,14.40
2018-12-02T15:52:42.903Z,14.40
2018-12-02T15:55:14.886Z,14.40
2018-12-02T15:57:42.197Z,14.30
2018-12-02T16:00:26.718Z,14.80
2018-12-02T16:02:54.166Z,14.30
2018-12-02T16:05:21.620Z,14.20
2018-12-02T16:07:48.936Z,14.30
2018-12-02T16:10:16.383Z,14.30
2018-12-02T16:12:45.824Z,14.40
2018-12-02T16:15:14.235Z,14.20
2018-12-02T16:17:41.855Z,14.20
2018-12-02T16:20:12.326Z,14.30
2018-12-02T16:22:40.162Z,14.20
2018-12-02T16:25:08.628Z,14.20
2018-12-02T16:27:36.171Z,14.20
2018-12-02T16:30:08.476Z,14.30
2018-12-02T16:32:35.985Z,14.30
2018-12-02T16:35:03.952Z,14.30
2018-12-02T16:37:31.466Z,14.30
2018-12-02T16:39:59.093Z,14.20
2018-12-02T16:42:26.645Z,14.30
2018-12-02T16:44:54.205Z,14.30
2018-12-02T16:47:21.773Z,14.30
2018-12-02T16:49:49.264Z,14.30
2018-12-02T16:52:16.857Z,14.50
2018-12-02T16:54:44.486Z,14.30
2018-12-02T16:57:13.565Z,14.20
2018-12-02T16:59:41.113Z,14.30
2018-12-02T17:02:09.300Z,14.30
2018-12-02T17:04:37.059Z,14.30
2018-12-02T17:07:04.578Z,14.30
2018-12-02T17:09:32.201Z,14.60
2018-12-02T17:11:59.757Z,14.30
2018-12-02T17:14:27.270Z,14.30
2018-12-02T17:16:55.056Z,14.30
2018-12-02T17:19:22.713Z,14.20
2018-12-02T17:21:50.239Z,14.40
2018-12-02T17:24:18.321Z,14.20
2018-12-02T17:26:45.885Z,14.20
2018-12-02T17:29:17.852Z,14.30
2018-12-02T17:31:50.469Z,14.50
2018-12-02T17:34:18.097Z,14.30
2018-12-02T17:36:45.634Z,14.50
2018-12-02T17:39:16.188Z,14.30
2018-12-02T17:41:46.237Z,14.70
2018-12-02T17:44:13.801Z,14.70
2018-12-02T17:46:41.404Z,14.50
2018-12-02T17:49:08.893Z,14.50
2018-12-02T17:51:36.627Z,14.40
2018-12-02T17:54:04.286Z,14.40
2018-12-02T17:56:31.850Z,14.40
2018-12-02T17:58:59.372Z,14.40
2018-12-02T18:01:26.910Z,14.60
2018-12-02T18:03:54.514Z,14.50
2018-12-02T18:06:22.109Z,14.40
2018-12-02T18:08:49.685Z,14.40
2018-12-02T18:11:17.237Z,14.40
2018-12-02T18:13:44.763Z,14.50
2018-12-02T18:16:12.326Z,14.30
2018-12-02T18:18:39.925Z,14.40
2018-12-02T18:21:07.558Z,14.40
2018-12-02T18:23:35.085Z,14.70
2018-12-02T18:26:02.681Z,14.50
2018-12-02T18:28:30.201Z,14.50
2018-12-02T18:30:57.874Z,14.40
2018-12-02T18:33:25.461Z,14.40
2018-12-02T18:35:55.641Z,14.40
2018-12-02T18:38:24.205Z,14.40
2018-12-02T18:40:57.467Z,14.90
2018-12-02T18:43:31.826Z,14.40
2018-12-02T18:45:59.533Z,14.50
2018-12-02T18:48:27.125Z,14.40
2018-12-02T18:50:54.751Z,14.40
2018-12-02T18:53:22.334Z,14.70
2018-12-02T18:55:49.851Z,14.40
2018-12-02T18:58:17.607Z,14.40
2018-12-02T19:00:46.690Z,14.40
2018-12-02T19:03:15.649Z,14.60
2018-12-02T19:05:43.226Z,14.50
2018-12-02T19:08:11.018Z,14.50
2018-12-02T19:10:38.534Z,14.50
2018-12-02T19:13:06.077Z,14.50
2018-12-02T19:15:33.596Z,14.50
2018-12-02T19:18:01.205Z,14.50
2018-12-02T19:20:29.607Z,14.40
2018-12-02T19:22:58.892Z,14.40
2018-12-02T19:25:27.705Z,14.50
2018-12-02T19:27:55.328Z,14.20
2018-12-02T19:30:22.928Z,14.40
2018-12-02T19:32:51.523Z,14.40
2018-12-02T19:35:27.720Z,14.30
2018-12-02T19:38:00.335Z,14.40
2018-12-02T19:40:27.866Z,14.70
2018-12-02T19:42:55.418Z,14.40
2018-12-02T19:45:22.990Z,14.40
2018-12-02T19:47:50.445Z,14.30
2018-12-02T19:50:18.898Z,14.00
2018-12-02T19:52:47.150Z,14.40
2018-12-02T19:55:14.697Z,14.60
2018-12-02T19:57:43.517Z,14.30
2018-12-02T20:00:18.106Z,14.40
2018-12-02T20:02:45.914Z,14.30
2018-12-02T20:05:13.490Z,14.40
2018-12-02T20:07:41.059Z,14.20
2018-12-02T20:10:10.973Z,14.40
2018-12-02T20:12:38.558Z,14.40
2018-12-02T20:15:09.157Z,14.50
2018-12-02T20:17:36.853Z,14.40
2018-12-02T20:20:12.974Z,14.40
2018-12-02T20:22:40.578Z,14.50
2018-12-02T20:25:08.848Z,14.40
2018-12-02T20:27:37.644Z,14.80
2018-12-02T20:30:13.425Z,14.30
2018-12-02T20:32:44.299Z,14.30
2018-12-02T20:35:13.553Z,14.30
2018-12-02T20:37:41.482Z,14.40
2018-12-02T20:40:13.870Z,14.20
2018-12-02T20:42:42.811Z,14.30
2018-12-02T20:45:13.914Z,14.70
2018-12-02T20:47:41.650Z,14.30
2018-12-02T20:50:12.381Z,14.40
2018-12-02T20:52:40.173Z,14.40
2018-12-02T20:55:12.282Z,14.20
2018-12-02T20:57:42.822Z,14.30
2018-12-02T21:00:13.760Z,14.40
2018-12-02T21:02:45.066Z,14.30
2018-12-02T21:05:17.359Z,14.20
2018-12-02T21:07:45.045Z,14.20
2018-12-02T21:10:12.949Z,14.20
2018-12-02T21:12:40.510Z,14.10
2018-12-02T21:15:12.050Z,14.20
2018-12-02T21:17:39.529Z,14.10
2018-12-02T21:20:10.474Z,14.50
2018-12-02T21:22:37.910Z,14.10
2018-12-02T21:25:09.071Z,14.10
2018-12-02T21:27:52.442Z,14.10
2018-12-02T21:30:25.299Z,14.10
2018-12-02T21:32:55.698Z,14.00
2018-12-02T21:35:23.258Z,14.00
2018-12-02T21:37:51.996Z,14.50
2018-12-02T21:40:20.466Z,14.10
2018-12-02T21:42:50.274Z,14.10
2018-12-02T21:45:17.782Z,14.00
2018-12-02T21:47:51.893Z,14.40
2018-12-02T21:50:29.221Z,14.10
2018-12-02T21:52:57.849Z,14.20
2018-12-02T21:55:25.181Z,14.20
2018-12-02T21:57:52.635Z,14.10
2018-12-02T22:00:25.930Z,14.10
2018-12-02T22:02:53.531Z,14.30
2018-12-02T22:05:20.949Z,14.20
2018-12-02T22:07:49.313Z,14.10
2018-12-02T22:10:18.141Z,14.40
2018-12-02T22:12:45.534Z,14.50
2018-12-02T22:15:13.052Z,14.20
2018-12-02T22:17:40.447Z,14.20
2018-12-02T22:20:12.213Z,14.20
2018-12-02T22:22:40.957Z,14.20
2018-12-02T22:25:24.129Z,14.20
2018-12-02T22:27:53.151Z,14.20
2018-12-02T22:30:22.776Z,14.00
2018-12-02T22:32:50.399Z,14.10
2018-12-02T22:35:18.054Z,13.90
2018-12-02T22:37:46.050Z,14.20
2018-12-02T22:40:17.579Z,14.20
2018-12-02T22:42:45.189Z,14.30
2018-12-02T22:45:15.653Z,14.30
2018-12-02T22:47:43.240Z,14.30
2018-12-02T22:50:12.954Z,14.30
2018-12-02T22:52:40.802Z,14.30
2018-12-02T22:55:10.085Z,14.30
2018-12-02T22:57:37.797Z,14.60
2018-12-02T23:00:16.490Z,14.40
2018-12-02T23:02:51.146Z,14.30
2018-12-02T23:05:19.263Z,14.60
2018-12-02T23:07:46.877Z,14.30
2018-12-02T23:10:14.636Z,14.30
2018-12-02T23:12:42.170Z,14.30
2018-12-02T23:15:09.774Z,14.30
2018-12-02T23:17:38.414Z,14.30
2018-12-02T23:20:08.356Z,14.40
2018-12-02T23:22:35.908Z,14.70
2018-12-02T23:25:03.485Z,14.30
2018-12-02T23:27:31.056Z,14.50
2018-12-02T23:29:58.568Z,14.20
2018-12-02T23:32:26.155Z,14.20
2018-12-02T23:34:53.685Z,14.30
2018-12-02T23:37:21.258Z,14.30
2018-12-02T23:39:48.797Z,14.20
2018-12-02T23:42:16.378Z,14.30
2018-12-02T23:44:43.909Z,14.20
2018-12-02T23:47:11.669Z,14.20
2018-12-02T23:49:39.200Z,14.30
2018-12-02T23:52:06.748Z,14.30
2018-12-02T23:54:34.329Z,14.30
2018-12-02T23:57:01.849Z,14.50
2018-12-02T23:59:29.833Z,14.20
